Weather History for KMSS - December, 2013

Change the Weather History Date:

Friday, December 20, 2013

  Actual Average Record
Temperature  
Mean Temperature 26 °F 20 °F  
Max Temperature 32 °F 29 °F 62 °F (1957)
Min Temperature 19 °F 12 °F -27 °F (1975)
Degree Days  
Heating Degree Days 39 45  
Month to date heating degree days 911 813  
Since 1 July heating degree days 2662 2582  
Cooling Degree Days 0 0  
Month to date cooling degree days 0  
Year to date cooling degree days 363  
Moisture  
Dew Point 20 °F    
Average Humidity 85    
Maximum Humidity 91    
Minimum Humidity 78    
Precipitation  
Precipitation 0.29 in 0.07 in 1.81 in (1973)
Month to date precipitation 0.53 1.63  
Year to date precipitation 34.41 34.16  
Sea Level Pressure  
Sea Level Pressure 29.97 in    
Wind  
Wind Speed 10 mph (NE)    
Max Wind Speed 21 mph    
Max Gust Speed 25 mph    
Visibility 2 miles    
Events Fog , Rain , Snow    
T = Trace of Precipitation, MM = Missing Value Source: NWS Daily Summary

Daily Weather History Graph

Daily Weather History Graph

Search for Another Location

Airport or City:

Trip Planner

Search our weather history database for the weather conditions in past years. The results will help you decide how hot, cold, wet, or windy it might be!

Date:

Astronomy

Dec. 20, 2013 Rise Set
Actual Time 7:33 AM EST 4:20 PM EST
Civil Twilight 7:00 AM EST 4:54 PM EST
Nautical Twilight 6:22 AM EST 5:31 PM EST
Astronomical Twilight 5:47 AM EST 6:07 PM EST
Moon 7:46 PM EST (12/20) 9:19 AM EST (12/20)
Length of Visible Light 9h 54m
Length of Day
8h 46m
Waning Gibbous, 90% of the Moon is Illuminated
Dec 20
Waning Gibbous
Dec 25
Last Quarter
Jan 1
New
Jan 7
First Quarter
Jan 15
Full

Hourly Weather History & Observations

Time (EST) Temp. Windchill Dew Point Humidity Pressure Visibility Wind Dir Wind Speed Gust Speed Precip Events Conditions
12:53 AM 30.0 °F - 26.1 °F 85% 30.09 in 9.0 mi Calm Calm - N/A   Overcast
1:33 AM 30.2 °F - 24.8 °F 80% 30.06 in 9.0 mi Calm Calm - N/A   Overcast
1:53 AM 30.0 °F - 26.1 °F 85% 30.08 in 8.0 mi Calm Calm - N/A   Overcast
2:53 AM 30.9 °F 24.3 °F 26.1 °F 82% 30.07 in 8.0 mi NE 6.9 mph - N/A   Overcast
3:39 AM 30.2 °F 22.6 °F 26.6 °F 86% 30.03 in 2.0 mi NE 8.1 mph - 0.00 in Snow Light Snow
3:48 AM 30.2 °F 22.6 °F 26.6 °F 86% 30.03 in 1.2 mi ENE 8.1 mph - 0.00 in Snow Light Snow
3:53 AM 30.0 °F 23.2 °F 26.1 °F 85% 30.04 in 1.2 mi ENE 6.9 mph - 0.00 in Snow Light Snow
4:02 AM 30.2 °F 23.4 °F 26.6 °F 86% 30.02 in 1.0 mi ENE 6.9 mph - 0.00 in Snow Light Snow
4:35 AM 30.2 °F 23.4 °F 26.6 °F 86% 30.02 in 1.2 mi East 6.9 mph - 0.01 in Snow Light Snow
4:53 AM 30.0 °F 22.4 °F 27.0 °F 88% 30.03 in 1.5 mi ENE 8.1 mph - 0.02 in Snow Light Snow
5:06 AM 30.2 °F 23.4 °F 26.6 °F 86% 30.00 in 2.5 mi ENE 6.9 mph - 0.00 in Snow Light Snow
5:15 AM 30.2 °F 21.9 °F 26.6 °F 86% 29.99 in 3.0 mi NE 9.2 mph - 0.00 in Snow Light Snow
5:43 AM 30.2 °F 21.9 °F 26.6 °F 86% 29.99 in 2.5 mi NE 9.2 mph - 0.00 in Snow Light Snow
5:51 AM 30.2 °F 21.9 °F 26.6 °F 86% 29.99 in 2.5 mi NE 9.2 mph - 0.00 in Snow Light Snow
5:53 AM 30.0 °F 21.7 °F 27.0 °F 88% 30.01 in 2.0 mi NE 9.2 mph - 0.00 in Snow Light Snow
5:58 AM 30.2 °F 21.3 °F 26.6 °F 86% 29.98 in 1.8 mi NE 10.4 mph - 0.00 in Snow Light Snow
6:08 AM 30.2 °F 21.3 °F 26.6 °F 86% 29.99 in 1.0 mi NE 10.4 mph - 0.01 in Snow Light Snow
6:18 AM 30.2 °F 22.6 °F 26.6 °F 86% 29.98 in 0.8 mi NE 8.1 mph - 0.01 in Snow Light Snow
6:26 AM 30.2 °F 21.9 °F 26.6 °F 86% 29.98 in 0.5 mi NE 9.2 mph - 0.02 in Fog , Snow Snow
6:53 AM 30.0 °F 20.0 °F 27.0 °F 88% 29.98 in 0.8 mi NE 12.7 mph - 0.03 in Snow Light Snow
7:09 AM 28.4 °F 18.0 °F 26.6 °F 93% 29.96 in 1.2 mi NE 12.7 mph - 0.00 in Snow Light Snow
7:43 AM 28.4 °F 17.5 °F 24.8 °F 86% 29.96 in 0.8 mi ENE 13.8 mph - 0.00 in Snow Light Snow
7:53 AM 28.0 °F 17.0 °F 25.0 °F 88% 29.97 in 1.0 mi ENE 13.8 mph - 0.01 in Snow Light Snow
7:59 AM 26.6 °F 14.7 °F 24.8 °F 93% 29.95 in 0.8 mi ENE 15.0 mph - 0.00 in Snow Light Snow
8:26 AM 24.8 °F 11.9 °F 21.2 °F 86% 29.96 in 1.0 mi NE 16.1 mph - 0.00 in Snow Light Snow
8:31 AM 24.8 °F 12.9 °F 21.2 °F 86% 29.96 in 1.5 mi NE 13.8 mph - 0.00 in Snow Light Snow
8:43 AM 24.8 °F 12.9 °F 21.2 °F 86% 29.95 in 3.0 mi ENE 13.8 mph - 0.00 in Snow Light Snow
8:53 AM 24.1 °F 11.0 °F 19.9 °F 84% 29.97 in 2.5 mi ENE 16.1 mph 24.2 mph 0.00 in Snow Light Snow
9:04 AM 24.8 °F 12.9 °F 19.4 °F 80% 29.95 in 1.8 mi ENE 13.8 mph - 0.00 in Snow Light Snow
9:16 AM 23.0 °F 9.6 °F 19.4 °F 86% 29.95 in 2.0 mi NE 16.1 mph 24.2 mph 0.01 in Snow Light Snow
9:36 AM 21.2 °F 9.5 °F 19.4 °F 93% 29.96 in 1.5 mi NE 11.5 mph - 0.01 in Snow Light Snow
9:46 AM 21.2 °F 9.5 °F 19.4 °F 93% 29.96 in 1.2 mi NE 11.5 mph - 0.02 in Snow Light Snow
9:53 AM 21.0 °F 8.1 °F 18.0 °F 88% 29.98 in 1.2 mi NE 13.8 mph - 0.02 in Snow Light Snow
10:06 AM 21.2 °F 8.3 °F 17.6 °F 86% 29.96 in 0.8 mi NNE 13.8 mph - 0.00 in Snow Light Snow
10:32 AM 19.4 °F 6.0 °F 15.8 °F 86% 29.97 in 1.2 mi NNE 13.8 mph - 0.01 in Snow Light Snow
10:42 AM 19.4 °F 6.0 °F 15.8 °F 86% 29.97 in 2.0 mi NE 13.8 mph - 0.02 in Snow Light Snow
10:53 AM 19.9 °F 7.3 °F 16.0 °F 85% 29.99 in 2.0 mi NE 12.7 mph - 0.02 in Snow Light Snow
11:01 AM 19.4 °F 6.6 °F 15.8 °F 86% 29.97 in 1.5 mi NE 12.7 mph - 0.00 in Snow Light Snow
11:13 AM 19.4 °F 6.6 °F 15.8 °F 86% 29.96 in 1.2 mi NE 12.7 mph - 0.01 in Snow Light Snow
11:30 AM 19.4 °F 6.6 °F 15.8 °F 86% 29.96 in 0.8 mi NE 12.7 mph - 0.01 in Snow Light Snow
11:38 AM 19.4 °F 7.9 °F 15.8 °F 86% 29.96 in 1.2 mi NE 10.4 mph - 0.01 in Snow Light Snow
11:53 AM 19.9 °F 6.7 °F 15.1 °F 81% 29.98 in 1.5 mi NE 13.8 mph - 0.01 in Snow Light Snow
12:07 PM 19.4 °F 6.0 °F 15.8 °F 86% 29.95 in 1.2 mi NE 13.8 mph - 0.00 in Snow Light Snow
12:46 PM 19.4 °F 7.2 °F 15.8 °F 86% 29.94 in 1.2 mi NE 11.5 mph - 0.01 in Snow Light Snow
12:53 PM 19.9 °F 8.6 °F 16.0 °F 85% 29.96 in 1.5 mi NE 10.4 mph - 0.01 in Snow Light Snow
1:01 PM 19.4 °F 7.2 °F 15.8 °F 86% 29.94 in 1.2 mi NE 11.5 mph - 0.00 in Snow Light Snow
1:38 PM 19.4 °F 8.6 °F 15.8 °F 86% 29.94 in 0.8 mi ENE 9.2 mph - 0.01 in Snow Light Snow
1:53 PM 19.9 °F 10.1 °F 16.0 °F 85% 29.96 in 1.2 mi ENE 8.1 mph - 0.01 in Snow Light Snow
2:17 PM 19.4 °F 7.9 °F 15.8 °F 86% 29.94 in 0.8 mi ENE 10.4 mph - 0.01 in Snow Light Snow
2:53 PM 19.9 °F 10.1 °F 17.1 °F 89% 29.96 in 0.5 mi ENE 8.1 mph - 0.02 in Fog , Snow Snow
3:04 PM 19.4 °F 9.5 °F 17.6 °F 93% 29.94 in 0.5 mi ENE 8.1 mph - 0.01 in Fog , Snow Snow
3:27 PM 19.4 °F 9.5 °F 17.6 °F 93% 29.94 in 0.5 mi NNE 8.1 mph - 0.03 in Fog , Snow Snow
3:53 PM 19.9 °F 9.3 °F 16.0 °F 85% 29.97 in 0.5 mi NE 9.2 mph - 0.04 in Fog , Snow Snow
4:21 PM 19.4 °F 10.4 °F 15.8 °F 86% 29.95 in 0.8 mi NE 6.9 mph - 0.02 in Snow Light Snow
4:29 PM 19.4 °F 10.4 °F 17.6 °F 93% 29.94 in 1.0 mi NE 6.9 mph - 0.02 in Snow Light Snow
4:49 PM 19.4 °F 9.5 °F 17.6 °F 93% 29.94 in 2.0 mi NE 8.1 mph - 0.03 in Snow Light Snow
4:53 PM 19.9 °F 10.1 °F 17.1 °F 89% 29.97 in 2.5 mi NE 8.1 mph - 0.03 in Snow Light Snow
5:00 PM 19.4 °F 9.5 °F 17.6 °F 93% 29.94 in 2.5 mi NE 8.1 mph - 0.00 in Snow Light Snow
5:10 PM 19.4 °F 9.5 °F 17.6 °F 93% 29.94 in 1.8 mi NE 8.1 mph - 0.00 in Snow Light Snow
5:21 PM 19.4 °F 8.6 °F 17.6 °F 93% 29.95 in 1.0 mi NNE 9.2 mph - 0.01 in Snow Light Snow
5:27 PM 19.4 °F 8.6 °F 17.6 °F 93% 29.96 in 0.8 mi NNE 9.2 mph - 0.02 in Snow Light Snow
5:43 PM 19.4 °F 7.9 °F 17.6 °F 93% 29.96 in 1.2 mi NNE 10.4 mph - 0.02 in Snow Light Snow
5:51 PM 19.4 °F 7.2 °F 17.6 °F 93% 29.97 in 1.5 mi NE 11.5 mph - 0.02 in Snow Light Snow
5:53 PM 19.9 °F 8.6 °F 16.0 °F 85% 29.99 in 1.5 mi NE 10.4 mph - 0.02 in Snow Light Snow
6:16 PM 19.4 °F 8.6 °F 17.6 °F 93% 29.96 in 2.0 mi NE 9.2 mph - 0.00 in Snow Light Snow
6:33 PM 19.4 °F 8.6 °F 17.6 °F 93% 29.96 in 1.5 mi NE 9.2 mph - 0.00 in Snow Light Snow
6:46 PM 19.4 °F 7.9 °F 17.6 °F 93% 29.96 in 2.0 mi NE 10.4 mph - 0.01 in Snow Light Snow
6:53 PM 19.9 °F 7.3 °F 17.1 °F 89% 29.96 in 2.5 mi NE 12.7 mph - 0.01 in Snow Light Snow
7:02 PM 19.4 °F 9.5 °F 17.6 °F 93% 29.96 in 3.0 mi NE 8.1 mph - 0.00 in Snow Light Snow
7:11 PM 19.4 °F 9.5 °F 17.6 °F 93% 29.96 in 3.0 mi NE 8.1 mph - 0.00 in Snow Light Snow
7:53 PM 21.0 °F 10.6 °F 17.1 °F 85% 29.97 in 10.0 mi ENE 9.2 mph - 0.00 in   Overcast
8:53 PM 21.0 °F 8.1 °F 17.1 °F 85% 29.96 in 4.0 mi ENE 13.8 mph 21.9 mph 0.00 in Rain Light Freezing Rain
9:25 PM 19.4 °F 6.0 °F 17.6 °F 93% 29.94 in 3.0 mi ENE 13.8 mph - 0.00 in Snow Light Snow
9:33 PM 19.4 °F 6.0 °F 17.6 °F 93% 29.94 in 2.5 mi ENE 13.8 mph - 0.00 in Snow Light Snow
9:50 PM 19.4 °F 5.5 °F 17.6 °F 93% 29.95 in 1.8 mi ENE 15.0 mph - 0.01 in Snow Light Snow
9:53 PM 19.9 °F 7.9 °F 17.1 °F 89% 29.97 in 1.5 mi ENE 11.5 mph - 0.01 in Snow Light Snow
10:03 PM 19.4 °F 6.6 °F 17.6 °F 93% 29.94 in 1.0 mi ENE 12.7 mph - 0.01 in Snow Light Snow
10:12 PM 19.4 °F 5.5 °F 17.6 °F 93% 29.93 in 0.8 mi ENE 15.0 mph - 0.01 in Snow Light Snow
10:18 PM 19.4 °F 7.2 °F 17.6 °F 93% 29.92 in 1.0 mi ENE 11.5 mph - 0.02 in Snow Light Snow
10:29 PM 19.4 °F 6.0 °F 17.6 °F 93% 29.93 in 2.0 mi ENE 13.8 mph - 0.03 in Snow Light Snow
10:40 PM 19.4 °F 6.6 °F 17.6 °F 93% 29.92 in 4.0 mi ENE 12.7 mph - 0.03 in Snow Light Snow
10:53 PM 21.0 °F 10.6 °F 17.1 °F 85% 29.94 in 8.0 mi ENE 9.2 mph - 0.03 in   Overcast
11:53 PM 19.9 °F 6.7 °F 17.1 °F 89% 29.91 in 3.0 mi ENE 13.8 mph - 0.00 in Rain Light Freezing Rain